createdAt,value
2018-03-06T00:00:01.778Z,3.30
2018-03-06T00:02:29.271Z,3.40
2018-03-06T00:04:56.941Z,3.60
2018-03-06T00:07:24.442Z,3.50
2018-03-06T00:09:52.713Z,3.50
2018-03-06T00:12:20.210Z,3.50
2018-03-06T00:14:47.705Z,3.50
2018-03-06T00:17:15.192Z,3.50
2018-03-06T00:19:42.669Z,3.50
2018-03-06T00:22:10.921Z,3.40
2018-03-06T00:24:38.408Z,3.40
2018-03-06T00:27:05.925Z,3.50
2018-03-06T00:29:33.425Z,3.40
2018-03-06T00:32:01.671Z,3.20
2018-03-06T00:34:29.178Z,3.20
2018-03-06T00:36:56.685Z,3.30
2018-03-06T00:39:24.818Z,3.30
2018-03-06T00:41:52.343Z,3.30
2018-03-06T00:44:20.579Z,3.30
2018-03-06T00:46:48.062Z,3.30
2018-03-06T00:49:15.544Z,3.30
2018-03-06T00:51:43.798Z,3.50
2018-03-06T00:54:11.269Z,3.50
2018-03-06T00:56:39.517Z,3.50
2018-03-06T00:59:06.986Z,3.50
2018-03-06T01:01:34.484Z,3.50
2018-03-06T01:04:01.952Z,3.50
2018-03-06T01:06:29.586Z,3.50
2018-03-06T01:08:57.839Z,3.60
2018-03-06T01:11:25.322Z,3.50
2018-03-06T01:13:52.810Z,3.60
2018-03-06T01:16:20.295Z,3.50
2018-03-06T01:18:47.779Z,3.50
2018-03-06T01:21:15.279Z,3.50
2018-03-06T01:23:42.774Z,3.50
2018-03-06T01:26:10.322Z,3.50
2018-03-06T01:28:37.843Z,3.50
2018-03-06T01:31:05.330Z,3.50
2018-03-06T01:33:32.822Z,3.50
2018-03-06T01:36:00.311Z,3.50
2018-03-06T01:38:28.557Z,3.60
2018-03-06T01:40:56.059Z,3.60
2018-03-06T01:43:24.314Z,3.60
2018-03-06T01:45:51.802Z,3.60
2018-03-06T01:48:19.300Z,3.60
2018-03-06T01:50:46.902Z,3.60
2018-03-06T01:53:15.185Z,3.50
2018-03-06T01:55:43.429Z,3.60
2018-03-06T01:58:10.932Z,3.60
2018-03-06T02:00:38.436Z,3.60
2018-03-06T02:03:06.693Z,3.50
2018-03-06T02:05:34.182Z,3.50
2018-03-06T02:08:01.709Z,3.50
2018-03-06T02:10:29.390Z,3.50
2018-03-06T02:12:56.901Z,3.40
2018-03-06T02:15:25.162Z,3.40
2018-03-06T02:17:52.670Z,3.40
2018-03-06T02:20:20.156Z,3.40
2018-03-06T02:22:47.649Z,3.50
2018-03-06T02:25:15.907Z,3.50
2018-03-06T02:27:43.404Z,3.60
2018-03-06T02:30:11.077Z,3.60
2018-03-06T02:32:39.411Z,3.60
2018-03-06T02:35:06.927Z,3.50
2018-03-06T02:37:34.415Z,3.50
2018-03-06T02:40:01.916Z,3.50
2018-03-06T02:42:29.419Z,3.50
2018-03-06T02:44:56.902Z,3.40
2018-03-06T02:47:24.395Z,3.40
2018-03-06T02:49:51.870Z,3.40
2018-03-06T02:52:19.398Z,3.40
2018-03-06T02:54:47.637Z,3.40
2018-03-06T02:57:15.129Z,3.40
2018-03-06T02:59:43.377Z,3.40
2018-03-06T03:02:10.865Z,3.40
2018-03-06T03:04:39.109Z,3.30
2018-03-06T03:07:06.601Z,3.30
2018-03-06T03:09:34.875Z,3.30
2018-03-06T03:12:03.117Z,3.20
2018-03-06T03:14:30.678Z,3.20
2018-03-06T03:16:58.195Z,3.20
2018-03-06T03:19:25.703Z,3.10
2018-03-06T03:21:53.170Z,3.00
2018-03-06T03:24:20.717Z,2.90
2018-03-06T03:26:48.198Z,2.80
2018-03-06T03:29:15.701Z,2.70
2018-03-06T03:31:43.292Z,2.60
2018-03-06T03:34:10.784Z,2.50
2018-03-06T03:36:39.089Z,2.40
2018-03-06T03:39:06.666Z,2.40
2018-03-06T03:41:34.144Z,2.40
2018-03-06T03:44:01.647Z,2.30
2018-03-06T03:46:29.949Z,2.20
2018-03-06T03:48:58.124Z,2.20
2018-03-06T03:51:25.612Z,2.10
2018-03-06T03:53:53.232Z,2.00
2018-03-06T03:56:20.833Z,2.00
2018-03-06T03:58:48.365Z,1.80
2018-03-06T04:01:15.865Z,1.70
2018-03-06T04:03:43.350Z,1.60
2018-03-06T04:06:10.842Z,1.50
2018-03-06T04:08:38.341Z,1.50
2018-03-06T04:11:06.406Z,1.40
2018-03-06T04:13:33.930Z,1.40
2018-03-06T04:16:01.516Z,1.40
2018-03-06T04:18:29.002Z,1.30
2018-03-06T04:20:57.285Z,1.30
2018-03-06T04:23:24.826Z,1.20
2018-03-06T04:25:52.305Z,1.20
2018-03-06T04:28:19.796Z,1.10
2018-03-06T04:30:48.056Z,1.00
2018-03-06T04:33:15.558Z,1.00
2018-03-06T04:35:43.056Z,0.90
2018-03-06T04:38:10.549Z,0.90
2018-03-06T04:40:38.790Z,0.80
2018-03-06T04:43:06.266Z,0.80
2018-03-06T04:45:33.761Z,0.70
2018-03-06T04:48:01.258Z,0.70
2018-03-06T04:50:28.757Z,0.60
2018-03-06T04:52:57.004Z,0.70
2018-03-06T04:55:24.811Z,0.70
2018-03-06T04:57:53.067Z,0.50
2018-03-06T05:00:20.552Z,0.50
2018-03-06T05:02:48.054Z,0.50
2018-03-06T05:05:15.566Z,0.40
2018-03-06T05:07:43.069Z,0.40
2018-03-06T05:10:10.552Z,0.30
2018-03-06T05:12:38.050Z,0.20
2018-03-06T05:15:05.535Z,0.10
2018-03-06T05:17:33.268Z,0.10
2018-03-06T05:20:00.792Z,0.20
2018-03-06T05:22:28.277Z,0.10
2018-03-06T05:24:56.524Z,0.10
2018-03-06T05:27:24.020Z,0.10
2018-03-06T05:29:51.500Z,0.00
2018-03-06T05:32:18.986Z,0.00
2018-03-06T05:34:46.501Z,0.20
2018-03-06T05:37:14.066Z,0.20
2018-03-06T05:39:41.550Z,0.10
2018-03-06T05:42:09.056Z,0.10
2018-03-06T05:44:36.541Z,0.20
2018-03-06T05:47:04.029Z,0.10
2018-03-06T05:49:31.526Z,0.10
2018-03-06T05:51:59.024Z,-0.10
2018-03-06T05:54:26.526Z,-0.20
2018-03-06T05:56:54.468Z,-0.20
2018-03-06T05:59:21.967Z,-0.20
2018-03-06T06:01:49.446Z,-0.20
2018-03-06T06:04:17.708Z,-0.20
2018-03-06T06:06:45.985Z,-0.20
2018-03-06T06:09:13.505Z,-0.20
2018-03-06T06:11:41.001Z,-0.20
2018-03-06T06:14:09.319Z,0.00
2018-03-06T06:16:37.318Z,0.00
2018-03-06T06:19:04.806Z,0.00
2018-03-06T06:21:32.288Z,0.10
2018-03-06T06:24:00.536Z,0.30
2018-03-06T06:26:28.067Z,0.20
2018-03-06T06:28:55.551Z,0.30
2018-03-06T06:31:23.043Z,0.30
2018-03-06T06:33:51.286Z,0.30
2018-03-06T06:36:18.787Z,0.30
2018-03-06T06:38:47.042Z,0.50
2018-03-06T06:41:15.485Z,0.50
2018-03-06T06:43:43.753Z,0.60
2018-03-06T06:46:11.259Z,0.60
2018-03-06T06:48:38.757Z,0.80
2018-03-06T06:51:06.682Z,1.20
2018-03-06T06:53:34.396Z,1.30
2018-03-06T06:56:01.891Z,1.30
2018-03-06T06:58:29.362Z,1.40
2018-03-06T07:00:56.862Z,1.60
2018-03-06T07:03:24.358Z,1.80
2018-03-06T07:05:51.848Z,1.90
2018-03-06T07:08:20.118Z,2.20
2018-03-06T07:10:47.612Z,2.10
2018-03-06T07:13:15.120Z,2.30
2018-03-06T07:15:42.638Z,2.40
2018-03-06T07:18:10.127Z,2.60
2018-03-06T07:20:37.816Z,2.70
2018-03-06T07:23:05.517Z,2.80
2018-03-06T07:25:33.060Z,2.90
2018-03-06T07:28:01.306Z,3.20
2018-03-06T07:30:28.798Z,3.20
2018-03-06T07:32:57.047Z,3.50
2018-03-06T07:35:24.518Z,3.50
2018-03-06T07:37:51.994Z,3.70
2018-03-06T07:40:20.273Z,3.90
2018-03-06T07:42:48.634Z,4.10
2018-03-06T07:45:16.881Z,4.30
2018-03-06T07:47:44.388Z,4.30
2018-03-06T07:50:12.637Z,4.70
2018-03-06T07:52:40.137Z,4.70
2018-03-06T07:55:07.622Z,4.90
2018-03-06T07:57:35.094Z,5.10
2018-03-06T08:00:03.391Z,5.60
2018-03-06T08:02:30.893Z,5.60
2018-03-06T08:04:58.376Z,5.80
2018-03-06T08:07:25.869Z,6.00
2018-03-06T08:09:53.339Z,6.20
2018-03-06T08:12:20.809Z,6.30
2018-03-06T08:14:49.083Z,6.50
2018-03-06T08:17:17.338Z,6.60
2018-03-06T08:19:44.818Z,6.60
2018-03-06T08:22:13.076Z,6.80
2018-03-06T08:24:40.553Z,6.80
2018-03-06T08:27:08.844Z,7.20
2018-03-06T08:29:37.185Z,7.30
2018-03-06T08:32:04.723Z,7.30
2018-03-06T08:34:32.203Z,7.40
2018-03-06T08:36:59.706Z,7.50
2018-03-06T08:39:27.203Z,7.80
2018-03-06T08:41:54.682Z,8.10
2018-03-06T08:44:22.161Z,8.60
2018-03-06T08:46:50.407Z,9.50
2018-03-06T08:49:17.976Z,9.50
2018-03-06T08:51:45.456Z,9.90
2018-03-06T08:54:13.113Z,10.00
2018-03-06T08:56:40.611Z,10.10
2018-03-06T08:59:08.155Z,11.10
2018-03-06T09:01:36.418Z,12.00
2018-03-06T09:04:04.679Z,12.40
2018-03-06T09:06:32.238Z,12.40
2018-03-06T09:09:01.591Z,12.60
2018-03-06T09:11:29.359Z,12.60
2018-03-06T09:13:57.137Z,12.90
2018-03-06T09:16:24.673Z,13.60
2018-03-06T09:18:52.207Z,13.60
2018-03-06T09:21:19.730Z,14.10
2018-03-06T09:23:47.240Z,14.70
2018-03-06T09:26:15.497Z,14.90
2018-03-06T09:28:44.811Z,14.90
2018-03-06T09:31:15.144Z,14.70
2018-03-06T09:33:52.945Z,14.90
2018-03-06T09:36:23.187Z,14.90
2018-03-06T09:38:57.054Z,15.10
2018-03-06T09:41:24.898Z,15.40
2018-03-06T09:43:55.053Z,15.10
2018-03-06T09:46:24.655Z,15.40
2018-03-06T09:48:52.125Z,15.80
2018-03-06T09:51:20.402Z,16.30
2018-03-06T09:53:48.642Z,16.90
2018-03-06T09:56:16.199Z,16.80
2018-03-06T09:58:43.721Z,16.90
2018-03-06T10:01:15.571Z,17.00
2018-03-06T10:03:43.829Z,18.70
2018-03-06T10:06:11.314Z,18.70
2018-03-06T10:08:38.803Z,19.30
2018-03-06T10:11:06.712Z,19.60
2018-03-06T10:13:34.187Z,19.20
2018-03-06T10:16:01.778Z,18.50
2018-03-06T10:18:29.299Z,17.60
2018-03-06T10:20:56.774Z,17.30
2018-03-06T10:23:24.268Z,17.10
2018-03-06T10:25:51.814Z,17.50
2018-03-06T10:28:19.333Z,17.00
2018-03-06T10:30:46.807Z,17.40
2018-03-06T10:33:15.130Z,17.50
2018-03-06T10:35:43.500Z,17.50
2018-03-06T10:38:11.043Z,17.30
2018-03-06T10:40:38.522Z,17.50
2018-03-06T10:43:06.008Z,16.60
2018-03-06T10:45:33.503Z,15.60
2018-03-06T10:48:01.005Z,15.50
2018-03-06T10:50:28.520Z,15.20
2018-03-06T10:52:56.792Z,14.80
2018-03-06T10:55:25.351Z,15.10
2018-03-06T10:57:52.843Z,15.10
2018-03-06T11:00:26.722Z,14.80
2018-03-06T11:02:54.209Z,14.20
2018-03-06T11:05:22.524Z,13.80
2018-03-06T11:07:50.060Z,13.80
2018-03-06T11:10:17.607Z,14.30
2018-03-06T11:12:45.137Z,14.60
2018-03-06T11:15:12.634Z,15.10
2018-03-06T11:17:40.183Z,15.00
2018-03-06T11:20:08.498Z,15.50
2018-03-06T11:22:36.088Z,15.40
2018-03-06T11:25:03.630Z,15.30
2018-03-06T11:27:31.281Z,15.20
2018-03-06T11:29:58.770Z,15.00
2018-03-06T11:32:26.271Z,14.90
2018-03-06T11:34:53.758Z,15.00
2018-03-06T11:37:21.324Z,15.00
2018-03-06T11:39:48.831Z,15.10
2018-03-06T11:42:16.346Z,15.00
2018-03-06T11:44:43.827Z,15.00
2018-03-06T11:47:11.487Z,14.80
2018-03-06T11:49:38.964Z,14.90
2018-03-06T11:52:06.450Z,14.50
2018-03-06T11:54:33.933Z,14.30
2018-03-06T11:57:01.429Z,14.10
2018-03-06T11:59:28.903Z,13.90
2018-03-06T12:01:57.234Z,13.90
2018-03-06T12:04:24.688Z,13.90
2018-03-06T12:06:52.228Z,13.70
2018-03-06T12:09:19.802Z,14.00
2018-03-06T12:11:47.347Z,14.30
2018-03-06T12:14:14.807Z,14.70
2018-03-06T12:16:42.314Z,14.50
2018-03-06T12:19:09.809Z,14.30
2018-03-06T12:21:38.046Z,14.90
2018-03-06T12:24:05.563Z,14.90
2018-03-06T12:26:33.125Z,14.40
2018-03-06T12:29:00.643Z,14.20
2018-03-06T12:31:28.171Z,14.30
2018-03-06T12:33:55.686Z,14.30
2018-03-06T12:36:23.957Z,14.90
2018-03-06T12:38:52.226Z,14.80
2018-03-06T12:41:19.857Z,14.80
2018-03-06T12:43:47.356Z,14.30
2018-03-06T12:46:15.628Z,13.70
2018-03-06T12:48:43.129Z,13.70
2018-03-06T12:51:10.623Z,13.80
2018-03-06T12:53:38.107Z,13.80
2018-03-06T12:56:06.442Z,13.70
2018-03-06T12:58:33.929Z,13.70
2018-03-06T13:01:01.429Z,13.60
2018-03-06T13:03:29.032Z,13.40
2018-03-06T13:05:56.553Z,13.30
2018-03-06T13:08:24.019Z,13.40
2018-03-06T13:10:51.522Z,13.30
2018-03-06T13:13:19.015Z,13.40
2018-03-06T13:15:47.280Z,13.60
2018-03-06T13:18:15.620Z,13.60
2018-03-06T13:20:43.128Z,13.60
2018-03-06T13:23:11.389Z,13.70
2018-03-06T13:25:39.699Z,13.50
2018-03-06T13:28:07.188Z,13.50
2018-03-06T13:30:34.707Z,13.80
2018-03-06T13:33:02.190Z,14.00
2018-03-06T13:35:29.690Z,13.90
2018-03-06T13:37:57.224Z,14.00
2018-03-06T13:40:24.694Z,14.20
2018-03-06T13:42:52.192Z,14.20
2018-03-06T13:45:20.437Z,14.50
2018-03-06T13:47:47.926Z,14.50
2018-03-06T13:50:16.178Z,14.70
2018-03-06T13:52:43.682Z,14.70
2018-03-06T13:55:11.152Z,14.70
2018-03-06T13:57:38.652Z,14.60
2018-03-06T14:00:06.294Z,14.90
2018-03-06T14:02:33.794Z,14.70
2018-03-06T14:05:01.371Z,14.40
2018-03-06T14:07:28.870Z,14.30
2018-03-06T14:09:56.372Z,14.10
2018-03-06T14:12:24.642Z,13.90
2018-03-06T14:14:52.897Z,13.70
2018-03-06T14:17:20.433Z,13.60
2018-03-06T14:19:47.940Z,13.70
2018-03-06T14:22:15.449Z,13.40
2018-03-06T14:24:42.977Z,13.50
2018-03-06T14:27:11.247Z,13.20
2018-03-06T14:29:39.507Z,13.30
2018-03-06T14:32:07.750Z,13.30
2018-03-06T14:34:35.307Z,13.30
2018-03-06T14:37:02.855Z,13.10
2018-03-06T14:39:30.355Z,13.10
2018-03-06T14:41:57.853Z,13.10
2018-03-06T14:44:26.219Z,12.70
2018-03-06T14:46:54.467Z,12.70
2018-03-06T14:49:22.042Z,12.70
2018-03-06T14:51:49.531Z,12.80
2018-03-06T14:54:17.073Z,12.70
2018-03-06T14:56:45.317Z,12.50
2018-03-06T14:59:12.796Z,12.50
2018-03-06T15:01:40.311Z,12.40
2018-03-06T15:04:07.804Z,12.60
2018-03-06T15:06:35.339Z,12.50
2018-03-06T15:09:02.862Z,12.30
2018-03-06T15:11:31.281Z,12.40
2018-03-06T15:13:58.806Z,12.30
2018-03-06T15:16:26.312Z,12.30
2018-03-06T15:18:53.801Z,12.20
2018-03-06T15:21:21.333Z,12.30
2018-03-06T15:23:48.831Z,12.30
2018-03-06T15:26:17.466Z,12.20
2018-03-06T15:28:44.983Z,12.20
2018-03-06T15:31:13.226Z,12.00
2018-03-06T15:33:40.719Z,12.00
2018-03-06T15:36:08.992Z,11.80
2018-03-06T15:38:37.261Z,11.70
2018-03-06T15:41:05.903Z,11.60
2018-03-06T15:43:33.379Z,11.60
2018-03-06T15:46:00.867Z,11.50
2018-03-06T15:48:29.107Z,11.10
2018-03-06T15:50:56.643Z,11.10
2018-03-06T15:53:24.130Z,11.10
2018-03-06T15:55:51.603Z,11.20
2018-03-06T15:58:19.225Z,11.20
2018-03-06T16:00:46.699Z,11.10
2018-03-06T16:03:14.202Z,11.00
2018-03-06T16:05:42.876Z,10.80
2018-03-06T16:08:10.415Z,10.80
2018-03-06T16:10:37.882Z,10.70
2018-03-06T16:13:05.460Z,10.60
2018-03-06T16:15:32.997Z,10.60
2018-03-06T16:18:01.293Z,10.50
2018-03-06T16:20:28.802Z,10.50
2018-03-06T16:22:56.361Z,10.40
2018-03-06T16:25:23.859Z,10.40
2018-03-06T16:27:51.355Z,10.30
2018-03-06T16:30:18.830Z,10.30
2018-03-06T16:32:46.346Z,10.10
2018-03-06T16:35:13.838Z,10.10
2018-03-06T16:37:41.316Z,10.00
2018-03-06T16:40:08.813Z,10.00
2018-03-06T16:42:36.332Z,9.90
2018-03-06T16:45:03.828Z,9.80
2018-03-06T16:47:32.071Z,9.80
2018-03-06T16:49:59.587Z,9.70
2018-03-06T16:52:27.265Z,9.70
2018-03-06T16:54:54.788Z,9.70
2018-03-06T16:57:22.346Z,9.60
2018-03-06T16:59:49.830Z,9.60
2018-03-06T17:02:18.107Z,9.60
2018-03-06T17:04:46.553Z,9.50
2018-03-06T17:07:14.051Z,9.60
2018-03-06T17:09:41.570Z,9.50
2018-03-06T17:12:09.124Z,9.50
2018-03-06T17:14:36.609Z,9.50
2018-03-06T17:17:05.592Z,9.50
2018-03-06T17:19:33.067Z,9.50
2018-03-06T17:22:00.580Z,9.50
2018-03-06T17:24:28.081Z,9.50
2018-03-06T17:26:55.614Z,9.50
2018-03-06T17:29:23.111Z,9.50
2018-03-06T17:31:50.712Z,9.40
2018-03-06T17:34:19.261Z,9.40
2018-03-06T17:36:46.778Z,9.40
2018-03-06T17:39:14.309Z,9.30
2018-03-06T17:41:41.797Z,9.30
2018-03-06T17:44:09.283Z,9.30
2018-03-06T17:46:36.750Z,9.20
2018-03-06T17:49:04.247Z,9.20
2018-03-06T17:51:31.761Z,9.20
2018-03-06T17:53:59.300Z,9.10
2018-03-06T17:56:26.834Z,9.10
2018-03-06T17:58:54.352Z,9.10
2018-03-06T18:01:21.856Z,9.00
2018-03-06T18:03:49.348Z,9.00
2018-03-06T18:06:16.842Z,9.00
2018-03-06T18:08:45.121Z,9.00
2018-03-06T18:11:13.365Z,9.00
2018-03-06T18:13:40.855Z,9.00
2018-03-06T18:16:09.150Z,8.90
2018-03-06T18:18:36.799Z,8.90
2018-03-06T18:21:04.508Z,8.90
2018-03-06T18:23:31.989Z,8.80
2018-03-06T18:25:59.550Z,8.80
2018-03-06T18:28:28.035Z,8.70
2018-03-06T18:30:55.596Z,8.70
2018-03-06T18:33:23.229Z,8.70
2018-03-06T18:35:51.802Z,8.60
2018-03-06T18:38:19.319Z,8.60
2018-03-06T18:40:46.829Z,8.60
2018-03-06T18:43:14.325Z,8.60
2018-03-06T18:45:41.840Z,8.60
2018-03-06T18:48:09.367Z,8.50
2018-03-06T18:50:49.491Z,8.50
2018-03-06T18:53:18.097Z,8.40
2018-03-06T18:55:46.359Z,8.50
2018-03-06T18:58:13.885Z,8.40
2018-03-06T19:01:02.064Z,8.40
2018-03-06T19:03:41.365Z,8.40
2018-03-06T19:06:20.799Z,8.40
2018-03-06T19:08:48.299Z,8.40
2018-03-06T19:11:16.645Z,8.40
2018-03-06T19:13:44.147Z,8.40
2018-03-06T19:16:12.430Z,8.40
2018-03-06T19:18:39.974Z,8.40
2018-03-06T19:21:07.448Z,8.40
2018-03-06T19:23:35.540Z,8.40
2018-03-06T19:26:03.089Z,8.40
2018-03-06T19:28:31.431Z,8.50
2018-03-06T19:30:58.988Z,8.50
2018-03-06T19:33:26.554Z,8.50
2018-03-06T19:35:55.339Z,8.50
2018-03-06T19:38:22.896Z,8.50
2018-03-06T19:40:50.706Z,8.50
2018-03-06T19:43:18.215Z,8.50
2018-03-06T19:45:46.072Z,8.40
2018-03-06T19:48:14.294Z,8.40
2018-03-06T19:50:42.403Z,8.40
2018-03-06T19:53:10.189Z,8.40
2018-03-06T19:55:37.736Z,8.40
2018-03-06T19:58:05.268Z,8.40
2018-03-06T20:00:33.392Z,8.30
2018-03-06T20:03:02.054Z,8.20
2018-03-06T20:05:30.628Z,8.20
2018-03-06T20:07:59.215Z,8.20
2018-03-06T20:10:27.270Z,8.10
2018-03-06T20:12:55.802Z,8.00
2018-03-06T20:15:23.569Z,8.00
2018-03-06T20:17:51.116Z,8.00
2018-03-06T20:20:19.222Z,8.00
2018-03-06T20:22:47.977Z,8.00
2018-03-06T20:25:21.710Z,7.90
2018-03-06T20:27:50.035Z,7.90
2018-03-06T20:30:23.393Z,7.90
2018-03-06T20:32:56.617Z,7.90
2018-03-06T20:35:24.462Z,7.90
2018-03-06T20:37:52.058Z,7.90
2018-03-06T20:40:25.969Z,7.90
2018-03-06T20:42:53.523Z,7.90
2018-03-06T20:45:21.002Z,7.90
2018-03-06T20:47:48.788Z,7.90
2018-03-06T20:50:16.397Z,7.90
2018-03-06T20:52:49.565Z,7.90
2018-03-06T20:55:17.051Z,7.90
2018-03-06T20:57:45.306Z,7.90
2018-03-06T21:00:12.845Z,7.80
2018-03-06T21:02:40.318Z,7.80
2018-03-06T21:05:08.210Z,7.90
2018-03-06T21:07:35.741Z,7.80
2018-03-06T21:10:03.308Z,7.80
2018-03-06T21:12:31.021Z,7.80
2018-03-06T21:14:58.520Z,7.80
2018-03-06T21:17:25.999Z,7.80
2018-03-06T21:19:54.388Z,7.80
2018-03-06T21:22:21.947Z,7.80
2018-03-06T21:24:49.686Z,7.80
2018-03-06T21:27:17.186Z,7.80
2018-03-06T21:29:44.687Z,7.70
2018-03-06T21:32:12.180Z,7.70
2018-03-06T21:34:39.664Z,7.70
2018-03-06T21:37:07.165Z,7.70
2018-03-06T21:39:34.656Z,7.70
2018-03-06T21:42:02.223Z,7.70
2018-03-06T21:44:30.565Z,7.60
2018-03-06T21:46:58.069Z,7.60
2018-03-06T21:49:26.345Z,7.50
2018-03-06T21:51:54.622Z,7.50
2018-03-06T21:54:22.886Z,7.50
2018-03-06T21:56:51.261Z,7.50
2018-03-06T21:59:18.781Z,7.40
2018-03-06T22:01:46.997Z,7.30
2018-03-06T22:04:14.474Z,7.30
2018-03-06T22:06:43.221Z,7.30
2018-03-06T22:09:10.707Z,7.20
2018-03-06T22:11:38.187Z,7.20
2018-03-06T22:14:05.673Z,7.20
2018-03-06T22:16:33.183Z,7.10
2018-03-06T22:19:00.696Z,7.10
2018-03-06T22:21:28.181Z,7.00
2018-03-06T22:23:55.678Z,6.90
2018-03-06T22:26:24.189Z,6.90
2018-03-06T22:28:51.675Z,6.90
2018-03-06T22:31:19.151Z,6.90
2018-03-06T22:33:46.643Z,6.70
2018-03-06T22:36:14.124Z,6.70
2018-03-06T22:38:43.250Z,6.70
2018-03-06T22:41:11.153Z,6.70
2018-03-06T22:43:39.399Z,6.60
2018-03-06T22:46:10.822Z,6.50
2018-03-06T22:48:38.341Z,6.50
2018-03-06T22:51:07.751Z,6.40
2018-03-06T22:53:36.143Z,6.40
2018-03-06T22:56:03.635Z,6.40
2018-03-06T22:58:31.126Z,6.30
2018-03-06T23:00:58.644Z,6.30
2018-03-06T23:03:26.114Z,6.20
2018-03-06T23:05:53.605Z,6.20
2018-03-06T23:08:21.087Z,6.10
2018-03-06T23:10:49.344Z,6.10
2018-03-06T23:13:16.815Z,6.10
2018-03-06T23:15:45.134Z,6.00
2018-03-06T23:18:12.602Z,6.00
2018-03-06T23:20:40.090Z,6.00
2018-03-06T23:23:07.566Z,6.00
2018-03-06T23:25:35.820Z,5.90
2018-03-06T23:28:03.307Z,5.90
2018-03-06T23:30:31.558Z,5.80
2018-03-06T23:32:59.117Z,5.80
2018-03-06T23:35:26.603Z,5.70
2018-03-06T23:37:54.843Z,5.50
2018-03-06T23:40:22.338Z,5.50
2018-03-06T23:42:50.598Z,5.30
2018-03-06T23:45:18.115Z,5.30
2018-03-06T23:47:45.605Z,5.30
2018-03-06T23:50:13.079Z,5.20
2018-03-06T23:52:40.607Z,5.10
2018-03-06T23:55:08.236Z,5.10
2018-03-06T23:57:35.756Z,5.10
